Time;durP1;ratioP1;P1;durP2;ratioP2;P2;SDS_P1;SDS_P2;PMS_P1;PMS_P2;Temp;Humidity;BMP_temperature;BMP_pressure;BME280_temperature;BME280_humidity;BME280_pressure;Samples;Min_cycle;Max_cycle;Signal;HPM_P1;HPM_P2
2022/11/18 00:01:12;;;;;;;;;0.00;0.00;;;;;11.91;100.00;99530.28;5057850;27;67505;-76
2022/11/18 00:03:38;;;;;;;;;0.00;0.00;;;;;11.94;100.00;99558.47;5056883;28;45491;-77
2022/11/18 00:06:04;;;;;;;;;0.00;0.00;;;;;11.91;100.00;99546.16;5055867;28;45451;-76
2022/11/18 00:08:30;;;;;;;;;0.33;0.33;;;;;11.91;100.00;99559.38;5034603;28;47762;-76
2022/11/18 00:10:55;;;;;;;;;1.00;1.00;;;;;11.89;100.00;99555.91;5063973;28;45276;-76
2022/11/18 00:16:10;;;;;;;;;1.00;1.00;;;;;11.88;100.00;99566.47;5056807;28;45299;-76
2022/11/18 00:18:36;;;;;;;;;0.33;0.33;;;;;11.88;100.00;99569.13;5063175;28;45756;-77
2022/11/18 00:21:05;;;;;;;;;2.00;0.67;;;;;11.89;100.00;99569.13;5054222;28;45241;-76
2022/11/18 00:23:31;;;;;;;;;4.00;0.00;;;;;11.88;100.00;99569.13;5055542;28;45484;-76
2022/11/18 00:26:17;;;;;;;;;0.00;0.00;;;;;11.89;100.00;99581.47;5054607;28;46041;-76
2022/11/18 00:28:42;;;;;;;;;0.00;0.00;;;;;11.86;100.00;99587.66;5053742;28;45615;-76
2022/11/18 00:31:10;;;;;;;;;0.00;0.00;;;;;11.87;100.00;99586.75;5055146;28;45315;-76
2022/11/18 00:33:36;;;;;;;;;1.67;0.00;;;;;11.90;100.00;99593.78;5070558;28;45556;-76
2022/11/18 00:36:06;;;;;;;;;0.00;0.00;;;;;11.89;100.00;99598.22;5054335;28;45205;-76
2022/11/18 00:38:31;;;;;;;;;0.00;0.00;;;;;11.85;100.00;99598.28;5056844;28;46106;-76
2022/11/18 00:41:01;;;;;;;;;0.00;0.00;;;;;11.87;100.00;99614.97;5053533;28;45365;-76
2022/11/18 00:43:27;;;;;;;;;1.00;0.00;;;;;11.87;100.00;99614.97;5055043;28;45478;-77
2022/11/18 00:45:52;;;;;;;;;0.00;0.00;;;;;11.84;100.00;99612.41;5054324;28;45486;-76
2022/11/18 00:48:20;;;;;;;;;0.00;0.00;;;;;11.84;100.00;99637.06;5054799;28;46429;-76
2022/11/18 00:50:53;;;;;;;;;0.33;0.33;;;;;11.82;100.00;99627.41;5071264;27;45396;-76
2022/11/18 00:53:20;;;;;;;;;1.00;0.00;;;;;11.81;100.00;99631.78;5054566;28;45358;-76
2022/11/18 00:55:45;;;;;;;;;0.00;0.00;;;;;11.74;100.00;99620.41;5054904;28;45648;-77
2022/11/18 00:58:14;;;;;;;;;0.00;0.00;;;;;11.75;100.00;99634.50;5053810;28;62771;-76
2022/11/18 01:00:44;;;;;;;;;0.00;0.00;;;;;11.72;100.00;99637.22;5053826;28;45518;-76
2022/11/18 01:03:10;;;;;;;;;0.67;0.00;;;;;11.69;100.00;99632.81;5054590;28;45487;-76
2022/11/18 01:05:37;;;;;;;;;0.00;0.00;;;;;11.67;100.00;99629.34;5036981;28;45662;-77
2022/11/18 01:08:03;;;;;;;;;0.00;0.00;;;;;11.67;100.00;99637.28;5055695;28;46852;-76
2022/11/18 01:10:28;;;;;;;;;1.00;0.00;;;;;11.65;100.00;99624.94;5053923;28;45345;-75
2022/11/18 01:15:38;;;;;;;;;0.00;0.00;;;;;11.69;100.00;99647.81;5054890;28;45568;-76
2022/11/18 01:18:04;;;;;;;;;0.00;0.00;;;;;11.67;100.00;99639.91;5066732;28;45318;-76
2022/11/18 01:20:31;;;;;;;;;0.67;0.00;;;;;11.68;100.00;99643.44;5057007;28;61512;-76
2022/11/18 01:22:56;;;;;;;;;2.00;0.00;;;;;11.68;100.00;99652.22;5056671;28;45345;-77
2022/11/18 01:25:22;;;;;;;;;0.00;0.00;;;;;11.68;100.00;99649.59;5056406;28;60703;-76
2022/11/18 01:27:47;;;;;;;;;0.00;0.00;;;;;11.67;100.00;99647.84;5055990;28;71089;-76
2022/11/18 01:30:13;;;;;;;;;0.00;0.00;;;;;11.67;100.00;99649.63;5056655;28;45877;-76
2022/11/18 01:32:38;;;;;;;;;0.00;0.00;;;;;11.70;100.00;99660.13;5058426;28;45230;-76
2022/11/18 01:35:04;;;;;;;;;1.00;1.00;;;;;11.68;100.00;99657.53;5203887;22;59624;-76
2022/11/18 01:37:29;;;;;;;;;0.00;0.00;;;;;11.68;100.00;99661.94;5096418;27;47378;-76
2022/11/18 01:39:55;;;;;;;;;0.00;0.00;;;;;11.67;100.00;99658.41;5095031;27;57644;-76
2022/11/18 01:42:20;;;;;;;;;1.33;0.00;;;;;11.66;100.00;99658.41;5096745;27;54759;-76
2022/11/18 01:45:03;;;;;;;;;3.00;0.00;;;;;11.68;100.00;99667.22;5098323;27;54319;-76
2022/11/18 01:47:34;;;;;;;;;3.00;0.00;;;;;11.64;100.00;99657.56;5094719;27;46666;-76
2022/11/18 01:50:00;;;;;;;;;0.00;0.00;;;;;11.69;100.00;99663.69;5096673;27;45416;-76
2022/11/18 01:52:26;;;;;;;;;0.00;0.00;;;;;11.68;100.00;99669.88;5114119;27;45513;-76
2022/11/18 01:54:55;;;;;;;;;1.33;0.00;;;;;11.68;100.00;99675.16;5097416;27;45393;-76
2022/11/18 01:57:23;;;;;;;;;0.00;0.00;;;;;11.68;100.00;99675.16;5093149;27;47560;-76
2022/11/18 01:59:53;;;;;;;;;0.67;0.00;;;;;11.68;100.00;99670.75;5089759;27;45752;-77
2022/11/18 02:02:19;;;;;;;;;0.00;0.00;;;;;11.68;100.00;99673.38;5093888;27;46105;-76
2022/11/18 02:04:48;;;;;;;;;2.00;0.00;;;;;11.68;100.00;99683.97;5098525;27;45503;-76
2022/11/18 02:07:13;;;;;;;;;0.00;0.00;;;;;11.68;100.00;99681.31;5112630;27;46694;-76
2022/11/18 02:09:39;;;;;;;;;0.33;0.00;;;;;11.68;100.00;99683.97;5095759;27;46643;-76
2022/11/18 02:12:05;;;;;;;;;0.00;0.00;;;;;11.71;100.00;99697.13;5093219;27;59064;-76
2022/11/18 02:14:37;;;;;;;;;0.00;0.00;;;;;11.69;100.00;99693.63;5096692;27;46210;-76
2022/11/18 02:17:20;;;;;;;;;0.00;0.00;;;;;11.70;100.00;99694.50;5098272;27;46706;-77
2022/11/18 02:19:45;;;;;;;;;0.00;0.00;;;;;11.69;100.00;99700.69;5097935;27;45456;-76
2022/11/18 02:22:32;;;;;;;;;1.00;0.00;;;;;11.70;100.00;99702.44;5098677;27;45275;-76
2022/11/18 02:25:12;;;;;;;;;0.00;0.00;;;;;11.70;100.00;99702.44;5091937;27;45219;-75
2022/11/18 02:28:13;;;;;;;;;0.00;0.00;;;;;11.69;100.00;99706.00;5107530;27;45308;-76
2022/11/18 02:30:49;;;;;;;;;0.00;0.00;;;;;11.67;100.00;99707.78;5112724;27;45504;-76
2022/11/18 02:33:27;;;;;;;;;0.00;0.00;;;;;11.65;100.00;99701.63;5096647;27;45536;-76
2022/11/18 02:36:04;;;;;;;;;0.00;0.00;;;;;11.64;100.00;99705.16;5112405;27;45615;-76
2022/11/18 02:38:36;;;;;;;;;0.00;0.00;;;;;11.61;100.00;99703.44;5093596;27;46490;-76
2022/11/18 02:41:05;;;;;;;;;0.00;0.00;;;;;11.58;100.00;99707.88;5088070;27;45520;-76
2022/11/18 02:43:33;;;;;;;;;0.00;0.00;;;;;11.59;100.00;99712.28;5093242;27;45615;-76
2022/11/18 02:46:02;;;;;;;;;1.00;0.00;;;;;11.54;100.00;99699.97;5079003;27;45421;-76
2022/11/18 02:48:30;;;;;;;;;0.00;0.00;;;;;11.55;100.00;99714.94;5094178;27;46876;-76
2022/11/18 02:50:57;;;;;;;;;0.00;0.00;;;;;11.54;100.00;99721.13;5097181;27;45414;-76
2022/11/18 02:53:24;;;;;;;;;0.00;0.00;;;;;11.51;100.00;99710.59;5079098;27;45293;-76
2022/11/18 02:55:50;;;;;;;;;0.00;0.00;;;;;11.48;100.00;99715.03;5114417;27;45573;-76
2022/11/18 02:58:17;;;;;;;;;0.00;0.00;;;;;11.46;100.00;99730.03;5113002;27;66673;-76
2022/11/18 03:00:43;;;;;;;;;0.00;0.00;;;;;11.44;100.00;99719.47;5092080;27;45426;-77
2022/11/18 03:03:35;;;;;;;;;0.00;0.00;;;;;11.44;100.00;99724.75;5096266;27;45448;-76
2022/11/18 03:06:09;;;;;;;;;0.00;0.00;;;;;11.45;100.00;99729.16;5088428;27;45604;-76
2022/11/18 03:08:46;;;;;;;;;0.00;0.00;;;;;11.43;100.00;99725.66;5097141;27;45749;-76
2022/11/18 03:11:17;;;;;;;;;0.00;0.00;;;;;11.45;100.00;99733.56;5113338;27;45361;-75
2022/11/18 03:13:55;;;;;;;;;0.33;0.00;;;;;11.44;100.00;99726.53;5096610;27;45476;-76
2022/11/18 03:16:28;;;;;;;;;0.00;0.00;;;;;11.41;100.00;99735.38;5098477;27;45626;-76
2022/11/18 03:19:00;;;;;;;;;0.00;0.00;;;;;11.45;100.00;99730.91;5094079;27;46310;-77
2022/11/18 03:21:38;;;;;;;;;0.00;0.00;;;;;11.44;100.00;99737.09;5096011;27;45449;-76
2022/11/18 03:24:14;;;;;;;;;0.00;0.00;;;;;11.42;100.00;99738.88;5095746;27;45499;-76
2022/11/18 03:26:45;;;;;;;;;0.33;0.00;;;;;11.38;100.00;99738.03;5113385;27;45949;-76
2022/11/18 03:29:20;;;;;;;;;0.00;0.00;;;;;11.41;100.00;99743.31;5094413;27;46196;-76
2022/11/18 03:32:02;;;;;;;;;0.00;0.00;;;;;11.39;100.00;99745.06;5095837;27;45385;-76
2022/11/18 03:34:49;;;;;;;;;0.00;0.00;;;;;11.40;100.00;99753.88;5094951;27;45453;-76
2022/11/18 03:37:17;;;;;;;;;0.00;0.00;;;;;11.40;100.00;99762.69;5111071;27;45390;-77
2022/11/18 03:39:46;;;;;;;;;0.00;0.00;;;;;11.41;100.00;99758.28;5095556;27;45938;-76
2022/11/18 03:42:24;;;;;;;;;1.00;0.00;;;;;11.41;100.00;99771.50;5090320;27;45338;-76
2022/11/18 03:44:54;;;;;;;;;0.00;0.00;;;;;11.42;100.00;99773.25;5094677;27;45180;-76
2022/11/18 03:47:25;;;;;;;;;0.00;0.00;;;;;11.42;100.00;99775.91;5085748;27;45877;-76
2022/11/18 03:50:21;;;;;;;;;0.00;0.00;;;;;11.45;100.00;99770.56;5096642;27;46542;-76
2022/11/18 03:52:48;;;;;;;;;0.00;0.00;;;;;11.45;100.00;99779.41;5083693;27;45409;-76
2022/11/18 03:55:17;;;;;;;;;0.00;0.00;;;;;11.47;100.00;99782.00;5093736;27;45524;-76
2022/11/18 03:58:00;;;;;;;;;0.00;0.00;;;;;11.45;100.00;99784.69;5095754;27;45373;-76
2022/11/18 04:00:29;;;;;;;;;0.00;0.00;;;;;11.47;100.00;99784.66;5093702;27;47748;-76
2022/11/18 04:02:54;;;;;;;;;0.00;0.00;;;;;11.47;100.00;99792.59;5078229;27;45600;-76
2022/11/18 04:05:20;;;;;;;;;0.00;0.00;;;;;11.47;100.00;99792.59;5094316;27;58452;-76
2022/11/18 04:07:55;;;;;;;;;0.00;0.00;;;;;11.49;100.00;99798.72;5095131;27;51929;-76
2022/11/18 04:10:44;;;;;;;;;2.00;0.00;;;;;11.49;100.00;99810.16;5085016;27;46064;-76
2022/11/18 04:13:25;;;;;;;;;0.00;0.00;;;;;11.50;100.00;99811.03;5089975;27;45473;-76
2022/11/18 04:15:52;;;;;;;;;0.00;0.00;;;;;11.50;100.00;99808.41;5091899;27;45580;-77
2022/11/18 04:18:18;;;;;;;;;0.00;0.00;;;;;11.47;100.00;99819.03;5095149;27;45525;-76
2022/11/18 04:20:43;;;;;;;;;2.00;0.00;;;;;11.50;100.00;99819.88;5094564;27;61398;-76
2022/11/18 04:23:08;;;;;;;;;0.00;0.00;;;;;11.49;100.00;99825.16;5095629;27;56183;-76
2022/11/18 04:25:35;;;;;;;;;0.00;0.00;;;;;11.49;100.00;99835.72;5095512;27;45722;-76
2022/11/18 04:28:00;;;;;;;;;0.00;0.00;;;;;11.49;100.00;99839.25;5096450;27;45370;-76
2022/11/18 04:30:26;;;;;;;;;0.00;0.00;;;;;11.46;100.00;99834.00;5096310;27;46491;-77
2022/11/18 04:32:51;;;;;;;;;0.00;0.00;;;;;11.47;100.00;99835.75;5095577;27;45486;-75
2022/11/18 04:35:16;;;;;;;;;3.00;0.00;;;;;11.46;100.00;99844.56;5082602;27;61530;-76
2022/11/18 04:37:42;;;;;;;;;0.67;0.00;;;;;11.43;100.00;99849.00;5093315;27;45563;-76
2022/11/18 04:40:08;;;;;;;;;1.00;0.00;;;;;11.42;100.00;99842.84;5091625;27;47031;-77
2022/11/18 04:42:33;;;;;;;;;0.00;0.00;;;;;11.40;100.00;99846.38;5094404;27;46326;-76
2022/11/18 04:44:59;;;;;;;;;0.00;0.00;;;;;11.43;100.00;99854.28;5095999;27;45167;-76
2022/11/18 04:47:24;;;;;;;;;1.00;0.00;;;;;11.43;100.00;99868.38;5111884;27;45554;-76
2022/11/18 04:49:49;;;;;;;;;1.00;0.00;;;;;11.41;100.00;99858.72;5096450;27;51857;-76
2022/11/18 04:52:15;;;;;;;;;0.00;0.00;;;;;11.38;100.00;99864.91;5092604;27;45463;-76
2022/11/18 04:54:40;;;;;;;;;1.00;0.00;;;;;11.38;100.00;99870.19;5095363;27;58408;-75
2022/11/18 04:57:06;;;;;;;;;0.00;0.00;;;;;11.35;100.00;99862.28;5096395;27;45459;-76
2022/11/18 04:59:31;;;;;;;;;4.00;0.00;;;;;11.38;100.00;99867.53;5098420;27;47690;-76
2022/11/18 05:01:58;;;;;;;;;1.00;0.00;;;;;11.37;100.00;99863.16;5099598;27;45548;-76
2022/11/18 05:04:26;;;;;;;;;0.33;0.00;;;;;11.38;100.00;99880.75;5098638;27;45483;-76
2022/11/18 05:06:51;;;;;;;;;1.00;0.00;;;;;11.36;100.00;99868.44;5116484;27;45542;-75
2022/11/18 05:09:17;;;;;;;;;0.00;0.00;;;;;11.36;100.00;99874.63;5094626;27;45611;-76
2022/11/18 05:14:28;;;;;;;;;0.00;0.00;;;;;11.33;100.00;99876.38;5091182;27;45354;-76
2022/11/18 05:16:55;;;;;;;;;0.00;0.00;;;;;11.31;100.00;99879.06;5105866;27;45352;-76
2022/11/18 05:19:21;;;;;;;;;0.00;0.00;;;;;11.29;100.00;99888.75;5097307;27;45927;-77
2022/11/18 05:21:46;;;;;;;;;0.00;0.00;;;;;11.28;100.00;99879.94;5091463;27;46412;-77
2022/11/18 05:24:11;;;;;;;;;0.67;0.00;;;;;11.28;100.00;99885.22;5093477;27;54336;-76
2022/11/18 05:26:37;;;;;;;;;0.00;0.00;;;;;11.23;100.00;99892.31;5092393;27;60360;-75
2022/11/18 05:29:02;;;;;;;;;0.67;0.00;;;;;11.26;100.00;99899.34;5095772;27;57364;-76
2022/11/18 05:31:27;;;;;;;;;1.00;0.00;;;;;11.24;100.00;99891.44;5093358;27;67585;-76
2022/11/18 05:33:53;;;;;;;;;0.00;0.00;;;;;11.24;100.00;99901.13;5093699;27;45613;-76
2022/11/18 05:36:20;;;;;;;;;0.00;0.00;;;;;11.24;100.00;99906.41;5096169;27;45579;-75
2022/11/18 05:38:46;;;;;;;;;1.00;0.00;;;;;11.22;100.00;99905.53;5098018;27;45657;-75
2022/11/18 05:43:09;;;;;;;;;0.00;0.00;;;;;11.17;100.00;99899.41;5097029;27;46600;-76
2022/11/18 05:43:59;;;;;;;;;2.00;0.00;;;;;11.18;100.00;99917.88;5092421;27;45485;-75
2022/11/18 05:46:25;;;;;;;;;0.67;0.00;;;;;11.18;100.00;99911.72;5098034;27;45595;-75
2022/11/18 05:48:50;;;;;;;;;0.00;0.00;;;;;11.16;100.00;99903.81;5078038;27;47893;-75
2022/11/18 05:51:16;;;;;;;;;0.67;0.00;;;;;11.15;100.00;99899.41;5090043;27;58724;-75
2022/11/18 05:53:41;;;;;;;;;0.00;0.00;;;;;11.18;100.00;99917.88;5095973;27;45427;-77
2022/11/18 05:56:19;;;;;;;;;0.00;0.00;;;;;11.18;100.00;99922.28;5070449;27;45453;-75
2022/11/18 05:58:45;;;;;;;;;0.00;0.00;;;;;11.16;100.00;99921.44;5083112;27;46248;-76
2022/11/18 06:01:13;;;;;;;;;0.00;0.00;;;;;11.18;100.00;99931.09;5107062;27;45528;-76
2022/11/18 06:03:39;;;;;;;;;1.00;0.67;;;;;11.17;100.00;99931.09;5097501;27;45231;-76
2022/11/18 06:06:07;;;;;;;;;0.00;0.00;;;;;11.19;100.00;99929.34;5098513;27;60447;-75
2022/11/18 06:08:36;;;;;;;;;0.00;0.00;;;;;11.17;100.00;99936.41;5097036;27;45631;-76
2022/11/18 06:11:01;;;;;;;;;0.00;0.00;;;;;11.20;100.00;99941.69;5114526;27;45333;-77
2022/11/18 06:13:35;;;;;;;;;0.00;0.00;;;;;11.19;100.00;99943.44;5094842;27;57490;-78
2022/11/18 06:16:01;;;;;;;;;0.00;0.00;;;;;11.19;100.00;99945.22;5092978;27;45543;-79
2022/11/18 06:18:29;;;;;;;;;0.00;0.00;;;;;11.18;100.00;99952.22;5082056;27;68885;-80
2022/11/18 06:20:58;;;;;;;;;0.67;0.67;;;;;11.15;100.00;99951.38;5092002;27;45582;-77
2022/11/18 06:23:24;;;;;;;;;0.00;0.00;;;;;11.15;100.00;99962.84;5109543;27;45549;-77
2022/11/18 06:25:49;;;;;;;;;2.00;0.00;;;;;11.13;100.00;99958.44;5093052;27;45683;-79
2022/11/18 06:28:16;;;;;;;;;0.00;0.00;;;;;11.14;100.00;99971.66;5094788;27;65964;-77
2022/11/18 06:30:41;;;;;;;;;0.67;0.67;;;;;11.12;100.00;99973.41;5093093;27;45540;-78
2022/11/18 06:33:07;;;;;;;;;0.00;0.00;;;;;11.12;100.00;99981.31;5088357;27;45518;-77
2022/11/18 06:35:33;;;;;;;;;0.00;0.00;;;;;11.11;100.00;99981.34;5078561;27;45460;-78
2022/11/18 06:38:00;;;;;;;;;0.00;0.00;;;;;11.10;100.00;99974.31;5093121;27;47824;-77
2022/11/18 06:40:25;;;;;;;;;2.00;0.00;;;;;11.10;100.00;99982.25;5095341;27;45365;-79
2022/11/18 06:45:34;;;;;;;;;0.00;0.00;;;;;11.07;100.00;99992.81;5093035;27;45504;-78
2022/11/18 06:48:00;;;;;;;;;1.00;0.00;;;;;11.06;100.00;99988.41;5096834;27;47737;-78
2022/11/18 06:50:26;;;;;;;;;0.00;0.00;;;;;11.04;100.00;99998.13;5095022;27;45490;-77
2022/11/18 06:52:52;;;;;;;;;2.33;0.33;;;;;11.04;100.00;99998.13;5094054;27;45520;-77
2022/11/18 06:55:17;;;;;;;;;0.00;0.00;;;;;11.04;100.00;99999.00;5096272;27;45331;-77
2022/11/18 06:57:43;;;;;;;;;0.00;0.00;;;;;11.04;100.00;100006.03;5095128;27;45511;-78
2022/11/18 07:00:09;;;;;;;;;0.00;0.00;;;;;11.03;100.00;100015.75;5096140;27;55068;-79
2022/11/18 07:02:37;;;;;;;;;0.00;0.00;;;;;11.02;100.00;100008.66;5092937;27;45564;-76
2022/11/18 07:05:04;;;;;;;;;0.67;0.67;;;;;11.00;100.00;100008.69;5094705;27;45532;-77
2022/11/18 07:07:29;;;;;;;;;0.00;0.00;;;;;11.00;100.00;100016.59;5094140;27;47549;-76
2022/11/18 07:09:54;;;;;;;;;1.67;0.33;;;;;10.98;100.00;100020.16;5096234;27;45456;-76
2022/11/18 07:12:20;;;;;;;;;0.00;0.00;;;;;10.94;100.00;100021.03;5091958;27;57473;-76
2022/11/18 07:14:46;;;;;;;;;3.00;0.00;;;;;10.95;100.00;100034.22;5088407;27;59542;-79
2022/11/18 07:17:11;;;;;;;;;3.00;1.00;;;;;10.94;100.00;100029.84;5107656;27;64948;-76
2022/11/18 07:19:38;;;;;;;;;0.00;0.00;;;;;10.94;100.00;100044.81;5090050;27;46525;-76
2022/11/18 07:22:04;;;;;;;;;0.00;0.00;;;;;10.91;100.00;100050.97;5090920;27;45607;-77
2022/11/18 07:24:29;;;;;;;;;2.00;0.00;;;;;10.89;100.00;100058.03;5093567;27;45394;-78
2022/11/18 07:26:54;;;;;;;;;0.00;0.00;;;;;10.89;100.00;100054.50;5093192;27;67506;-77
2022/11/18 07:29:20;;;;;;;;;1.00;1.00;;;;;10.89;100.00;100060.66;5092117;27;58897;-76
2022/11/18 07:31:45;;;;;;;;;0.67;0.67;;;;;10.89;100.00;100065.06;5088415;27;56041;-78
2022/11/18 07:34:11;;;;;;;;;1.00;0.67;;;;;10.90;100.00;100075.63;5103702;27;61751;-77
2022/11/18 07:36:37;;;;;;;;;0.67;0.33;;;;;10.89;100.00;100084.44;5091964;27;46877;-77
2022/11/18 07:39:04;;;;;;;;;1.00;1.00;;;;;10.88;100.00;100085.34;5086005;27;49224;-78
2022/11/18 07:41:30;;;;;;;;;1.33;1.00;;;;;10.86;100.00;100089.72;5082399;27;45505;-77
2022/11/18 07:43:56;;;;;;;;;2.00;1.00;;;;;10.91;100.00;100090.59;5093648;27;45487;-79
2022/11/18 07:46:26;;;;;;;;;2.00;0.67;;;;;10.93;100.00;100096.75;5082834;27;46481;-77
2022/11/18 07:48:52;;;;;;;;;3.00;0.33;;;;;10.92;100.00;100095.00;5092529;27;46571;-77
2022/11/18 07:51:20;;;;;;;;;0.33;0.33;;;;;10.91;100.00;100095.88;5076922;27;45388;-78
2022/11/18 07:53:45;;;;;;;;;3.00;1.67;;;;;10.90;100.00;100101.16;5091485;27;45563;-75
2022/11/18 07:56:12;;;;;;;;;2.00;1.00;;;;;10.90;100.00;100103.81;5095366;27;46358;-75
2022/11/18 07:58:37;;;;;;;;;2.00;1.00;;;;;10.93;100.00;100112.63;5091215;27;45493;-75
2022/11/18 08:01:10;;;;;;;;;1.00;0.67;;;;;10.97;100.00;100111.72;5087711;27;45472;-74
2022/11/18 08:03:36;;;;;;;;;2.00;0.00;;;;;11.06;100.00;100123.16;5093022;27;45493;-74
2022/11/18 08:06:02;;;;;;;;;0.00;0.00;;;;;11.11;100.00;100111.69;5103942;27;47125;-76
2022/11/18 08:08:27;;;;;;;;;2.33;1.00;;;;;11.18;100.00;100117.81;5085194;27;45476;-75
2022/11/18 08:10:57;;;;;;;;;2.33;1.00;;;;;11.27;100.00;100118.66;5091591;27;45446;-76
2022/11/18 08:13:22;;;;;;;;;2.67;1.00;;;;;11.32;100.00;100123.06;5088416;27;45420;-76
2022/11/18 08:15:48;;;;;;;;;0.00;0.00;;;;;11.36;100.00;100123.06;5107108;27;48454;-75
2022/11/18 08:18:13;;;;;;;;;0.00;0.00;;;;;11.35;100.00;100138.94;5090788;27;61988;-76
2022/11/18 08:20:38;;;;;;;;;2.67;1.00;;;;;11.31;100.00;100111.63;5090577;27;62895;-76
2022/11/18 08:23:04;;;;;;;;;1.67;0.00;;;;;11.29;100.00;100123.94;5093889;27;55871;-75
2022/11/18 08:25:29;;;;;;;;;2.00;0.00;;;;;11.28;100.00;100124.84;5091459;27;62033;-75
2022/11/18 08:27:54;;;;;;;;;0.00;0.00;;;;;11.23;100.00;100126.59;5091733;27;65012;-76
2022/11/18 08:30:20;;;;;;;;;2.00;2.00;;;;;11.24;100.00;100125.75;5085026;27;45524;-76
2022/11/18 08:32:45;;;;;;;;;2.00;0.00;;;;;11.26;100.00;100127.50;5091447;27;55260;-78
2022/11/18 08:35:10;;;;;;;;;1.00;0.00;;;;;11.27;100.00;100133.66;5082621;27;45880;-77
2022/11/18 08:37:36;;;;;;;;;0.00;0.00;;;;;11.24;100.00;100128.41;5099229;27;45246;-77
2022/11/18 08:40:01;;;;;;;;;1.00;1.00;;;;;11.32;100.00;100133.63;5087681;27;60580;-78
2022/11/18 08:42:26;;;;;;;;;5.00;0.67;;;;;11.36;100.00;100135.41;5089186;27;45581;-76
2022/11/18 08:44:52;;;;;;;;;0.00;0.00;;;;;11.34;100.00;100140.66;5088149;27;62693;-76
2022/11/18 08:47:17;;;;;;;;;1.00;1.00;;;;;11.38;100.00;100145.06;5089443;27;58815;-76
2022/11/18 08:49:42;;;;;;;;;1.33;1.00;;;;;11.40;100.00;100142.41;5105824;27;45385;-76
2022/11/18 08:52:08;;;;;;;;;5.00;1.00;;;;;11.42;100.00;100146.81;5089177;27;45640;-77
2022/11/18 08:54:34;;;;;;;;;0.00;0.00;;;;;11.39;100.00;100146.81;5088081;27;48229;-77
2022/11/18 08:56:59;;;;;;;;;1.00;0.00;;;;;11.41;100.00;100150.34;5092597;27;45335;-75
2022/11/18 08:59:25;;;;;;;;;0.00;0.00;;;;;11.39;100.00;100144.19;5091244;27;58853;-75
2022/11/18 09:01:50;;;;;;;;;0.00;0.00;;;;;11.42;100.00;100146.81;5089571;27;45492;-74
2022/11/18 09:04:16;;;;;;;;;0.00;0.00;;;;;11.46;100.00;100151.22;5092618;27;46326;-76
2022/11/18 09:06:41;;;;;;;;;3.33;1.00;;;;;11.48;100.00;100157.38;5086585;27;56376;-76
2022/11/18 09:09:07;;;;;;;;;0.00;0.00;;;;;11.52;100.00;100150.31;5093471;27;45463;-75
2022/11/18 09:11:33;;;;;;;;;1.00;1.00;;;;;11.55;100.00;100134.41;5090554;27;45677;-76
2022/11/18 09:13:59;;;;;;;;;0.00;0.00;;;;;11.62;100.00;100145.88;5104157;27;46792;-76
2022/11/18 09:16:27;;;;;;;;;2.00;0.00;;;;;11.59;100.00;100141.47;5104977;27;45749;-77
2022/11/18 09:18:54;;;;;;;;;2.00;1.00;;;;;11.69;100.00;100150.25;5093421;27;45524;-76
2022/11/18 09:21:19;;;;;;;;;1.33;1.00;;;;;11.73;100.00;100157.28;5086670;27;45586;-75
2022/11/18 09:23:45;;;;;;;;;0.00;0.00;;;;;11.73;100.00;100160.81;5090682;27;70255;-75
2022/11/18 09:26:12;;;;;;;;;2.00;0.67;;;;;11.78;100.00;100166.06;5091664;27;45475;-76
2022/11/18 09:28:38;;;;;;;;;0.00;0.00;;;;;11.82;100.00;100169.59;5089033;27;45509;-76
2022/11/18 09:31:11;;;;;;;;;1.33;0.00;;;;;11.84;100.00;100160.78;5088687;27;61510;-76
2022/11/18 09:33:37;;;;;;;;;2.00;1.00;;;;;11.88;100.00;100165.19;5074080;27;48843;-74
2022/11/18 09:36:04;;;;;;;;;0.00;0.00;;;;;11.94;100.00;100174.84;5091190;27;45520;-77
2022/11/18 09:38:30;;;;;;;;;0.00;0.00;;;;;11.97;100.00;100180.97;5085308;27;45919;-75
2022/11/18 09:41:26;;;;;;;;;0.00;0.00;;;;;12.02;100.00;100176.56;5092845;27;45469;-76
2022/11/18 09:44:07;;;;;;;;;2.00;0.00;;;;;12.02;100.00;100171.25;5092703;27;46261;-77
2022/11/18 09:46:52;;;;;;;;;3.00;0.00;;;;;12.07;100.00;100181.81;5096279;27;45377;-79
2022/11/18 09:49:29;;;;;;;;;0.00;0.00;;;;;12.11;100.00;100172.97;5087077;27;45534;-76
2022/11/18 09:51:56;;;;;;;;;0.00;0.00;;;;;12.13;100.00;100184.44;5090856;27;45503;-75
2022/11/18 09:54:23;;;;;;;;;0.00;0.00;;;;;12.17;100.00;100190.59;5092301;27;46529;-76
2022/11/18 09:56:51;;;;;;;;;0.00;0.00;;;;;12.19;100.00;100179.09;5089420;27;45562;-77
2022/11/18 09:59:19;;;;;;;;;0.00;0.00;;;;;12.23;100.00;100185.25;5094405;27;46786;-79
2022/11/18 10:01:45;;;;;;;;;0.00;0.00;;;;;12.27;100.00;100187.00;5096791;27;45528;-78
2022/11/18 10:04:14;;;;;;;;;0.00;0.00;;;;;12.28;100.00;100180.81;5079362;27;47372;-80
2022/11/18 10:06:39;;;;;;;;;1.00;1.00;;;;;12.35;100.00;100189.59;5092560;27;46146;-77
2022/11/18 10:09:25;;;;;;;;;0.00;0.00;;;;;12.38;100.00;100192.22;5087693;27;45579;-77
2022/11/18 10:12:04;;;;;;;;;3.00;0.00;;;;;12.41;100.00;100194.84;5096170;27;45439;-78
2022/11/18 10:14:45;;;;;;;;;2.00;1.00;;;;;12.41;100.00;100181.59;5094392;27;45531;-77
2022/11/18 10:17:21;;;;;;;;;1.33;0.00;;;;;12.43;100.00;100183.38;5091281;27;46173;-78
2022/11/18 10:19:55;;;;;;;;;1.00;0.00;;;;;12.47;100.00;100200.13;5088948;27;45351;-78
2022/11/18 10:22:23;;;;;;;;;2.00;0.00;;;;;12.49;100.00;100191.25;5078800;27;45501;-78
2022/11/18 10:24:52;;;;;;;;;0.00;0.00;;;;;12.48;100.00;100197.44;5094551;27;47506;-77
2022/11/18 10:27:17;;;;;;;;;1.67;0.00;;;;;12.51;100.00;100189.47;5076305;27;45594;-80
2022/11/18 10:29:44;;;;;;;;;2.00;1.00;;;;;12.55;100.00;100191.22;5099835;27;45591;-78
2022/11/18 10:32:13;;;;;;;;;0.33;0.33;;;;;12.55;100.00;100183.25;5076969;27;45450;-76
2022/11/18 10:34:50;;;;;;;;;1.33;1.00;;;;;12.58;100.00;100185.03;5101677;27;47487;-76
2022/11/18 10:37:24;;;;;;;;;0.00;0.00;;;;;12.62;100.00;100193.81;5098146;27;45482;-76
2022/11/18 10:39:52;;;;;;;;;0.00;0.00;;;;;12.63;100.00;100196.47;5086983;27;45549;-77
2022/11/18 10:42:27;;;;;;;;;0.00;0.00;;;;;12.71;100.00;100204.34;5093559;27;45489;-77
2022/11/18 10:44:52;;;;;;;;;2.00;0.00;;;;;12.78;100.00;100201.66;5091153;27;48482;-78
2022/11/18 10:47:22;;;;;;;;;0.00;0.00;;;;;12.93;100.00;100203.25;5088612;27;45521;-78
2022/11/18 10:49:47;;;;;;;;;0.00;0.00;;;;;13.05;100.00;100200.53;5094132;27;46593;-75
2022/11/18 10:52:13;;;;;;;;;0.00;0.00;;;;;13.19;100.00;100205.69;5092049;27;45371;-76
2022/11/18 10:54:39;;;;;;;;;0.33;0.00;;;;;13.29;100.00;100212.69;5088476;27;46443;-76
2022/11/18 10:57:17;;;;;;;;;0.00;0.00;;;;;13.30;100.00;100197.66;5096289;27;45571;-76
2022/11/18 10:59:43;;;;;;;;;2.00;0.00;;;;;13.28;100.00;100199.44;5088411;27;45484;-75
2022/11/18 11:02:31;;;;;;;;;0.00;0.00;;;;;13.29;100.00;100196.78;5085786;27;46018;-75
2022/11/18 11:05:00;;;;;;;;;1.00;0.00;;;;;13.33;100.00;100187.03;5095894;27;45590;-76
2022/11/18 11:07:25;;;;;;;;;0.00;0.00;;;;;13.37;100.00;100196.72;5087500;27;45422;-76
2022/11/18 11:10:00;;;;;;;;;2.00;0.00;;;;;13.49;100.00;100203.66;5091588;27;45496;-76
2022/11/18 11:12:30;;;;;;;;;0.00;0.00;;;;;13.60;100.00;100189.38;5095582;27;45487;-75
2022/11/18 11:14:59;;;;;;;;;0.00;0.00;;;;;13.74;100.00;100201.56;5090458;27;45485;-76
2022/11/18 11:17:35;;;;;;;;;0.00;0.00;;;;;13.91;100.00;100212.00;5092037;27;45419;-75
2022/11/18 11:20:06;;;;;;;;;0.00;0.00;;;;;13.96;100.00;100211.06;5089959;27;45568;-75
2022/11/18 11:22:32;;;;;;;;;0.00;0.00;;;;;14.02;100.00;100203.00;5096889;27;45636;-76
2022/11/18 11:24:57;;;;;;;;;3.00;0.00;;;;;14.03;100.00;100207.41;5090950;27;54280;-77
2022/11/18 11:28:00;;;;;;;;;0.00;0.00;;;;;14.08;100.00;100210.00;5085275;27;50853;-77
2022/11/18 11:30:26;;;;;;;;;2.67;0.00;;;;;14.18;100.00;100201.03;5091904;27;45348;-79
2022/11/18 11:33:08;;;;;;;;;0.00;0.00;;;;;14.26;100.00;100206.22;5081238;27;45678;-81
2022/11/18 11:35:46;;;;;;;;;0.00;0.00;;;;;14.30;100.00;100202.63;5084022;27;45814;-80
2022/11/18 11:38:32;;;;;;;;;1.00;1.00;;;;;14.33;100.00;100199.94;5061950;27;46065;-79
2022/11/18 11:41:13;;;;;;;;;2.00;1.00;;;;;14.40;100.00;100198.94;5094294;27;45345;-80